sensor_id;sensor_type;location;lat;lon;timestamp;temperature;humidity
14705;DHT22;7442;50.840;3.396;2023-09-30T00:02:26;27.10;52.10
14705;DHT22;7442;50.840;3.396;2023-09-30T00:05:13;27.10;52.20
14705;DHT22;7442;50.840;3.396;2023-09-30T00:08:00;27.10;52.10
14705;DHT22;7442;50.840;3.396;2023-09-30T00:10:46;27.20;52.00
14705;DHT22;7442;50.840;3.396;2023-09-30T00:13:33;27.20;51.80
14705;DHT22;7442;50.840;3.396;2023-09-30T00:16:19;27.30;51.70
14705;DHT22;7442;50.840;3.396;2023-09-30T00:19:05;27.30;51.50
14705;DHT22;7442;50.840;3.396;2023-09-30T00:21:51;27.30;51.40
14705;DHT22;7442;50.840;3.396;2023-09-30T00:24:38;27.40;51.30
14705;DHT22;7442;50.840;3.396;2023-09-30T00:27:25;27.40;51.20
14705;DHT22;7442;50.840;3.396;2023-09-30T00:30:11;27.50;51.20
14705;DHT22;7442;50.840;3.396;2023-09-30T00:32:57;27.40;51.00
14705;DHT22;7442;50.840;3.396;2023-09-30T00:35:44;27.50;51.00
14705;DHT22;7442;50.840;3.396;2023-09-30T00:38:31;27.50;50.90
14705;DHT22;7442;50.840;3.396;2023-09-30T00:41:17;27.50;50.90
14705;DHT22;7442;50.840;3.396;2023-09-30T00:44:03;27.50;50.90
14705;DHT22;7442;50.840;3.396;2023-09-30T00:46:49;27.50;50.80
14705;DHT22;7442;50.840;3.396;2023-09-30T00:49:36;27.50;50.70
14705;DHT22;7442;50.840;3.396;2023-09-30T00:52:23;27.50;50.70
14705;DHT22;7442;50.840;3.396;2023-09-30T00:55:09;27.60;50.60
14705;DHT22;7442;50.840;3.396;2023-09-30T00:57:56;27.60;50.60
14705;DHT22;7442;50.840;3.396;2023-09-30T01:00:42;27.60;50.40
14705;DHT22;7442;50.840;3.396;2023-09-30T01:03:29;27.60;50.30
14705;DHT22;7442;50.840;3.396;2023-09-30T01:06:15;27.50;50.60
14705;DHT22;7442;50.840;3.396;2023-09-30T01:09:02;27.40;50.80
14705;DHT22;7442;50.840;3.396;2023-09-30T01:11:48;27.30;51.00
14705;DHT22;7442;50.840;3.396;2023-09-30T01:14:35;27.30;51.10
14705;DHT22;7442;50.840;3.396;2023-09-30T01:17:25;27.30;51.20
14705;DHT22;7442;50.840;3.396;2023-09-30T01:20:15;27.30;51.20
14705;DHT22;7442;50.840;3.396;2023-09-30T01:23:05;27.20;51.10
14705;DHT22;7442;50.840;3.396;2023-09-30T01:25:52;27.30;51.00
14705;DHT22;7442;50.840;3.396;2023-09-30T01:28:39;27.30;50.90
14705;DHT22;7442;50.840;3.396;2023-09-30T01:31:26;27.40;50.90
14705;DHT22;7442;50.840;3.396;2023-09-30T01:34:13;27.40;50.90
14705;DHT22;7442;50.840;3.396;2023-09-30T01:37:02;27.40;50.70
14705;DHT22;7442;50.840;3.396;2023-09-30T01:39:48;27.40;50.70
14705;DHT22;7442;50.840;3.396;2023-09-30T01:42:35;27.30;50.70
14705;DHT22;7442;50.840;3.396;2023-09-30T01:45:21;27.30;50.70
14705;DHT22;7442;50.840;3.396;2023-09-30T01:48:07;27.40;50.70
14705;DHT22;7442;50.840;3.396;2023-09-30T01:50:55;27.40;50.60
14705;DHT22;7442;50.840;3.396;2023-09-30T01:53:43;27.50;50.50
14705;DHT22;7442;50.840;3.396;2023-09-30T01:56:30;27.50;50.40
14705;DHT22;7442;50.840;3.396;2023-09-30T01:59:17;27.50;50.40
14705;DHT22;7442;50.840;3.396;2023-09-30T02:02:03;27.50;50.20
14705;DHT22;7442;50.840;3.396;2023-09-30T02:04:49;27.40;50.30
14705;DHT22;7442;50.840;3.396;2023-09-30T02:07:35;27.30;50.70
14705;DHT22;7442;50.840;3.396;2023-09-30T02:10:23;27.20;50.90
14705;DHT22;7442;50.840;3.396;2023-09-30T02:13:09;27.20;51.00
14705;DHT22;7442;50.840;3.396;2023-09-30T02:15:57;27.10;51.00
14705;DHT22;7442;50.840;3.396;2023-09-30T02:18:44;27.10;51.10
14705;DHT22;7442;50.840;3.396;2023-09-30T02:21:34;27.10;51.00
14705;DHT22;7442;50.840;3.396;2023-09-30T02:24:20;27.20;51.00
14705;DHT22;7442;50.840;3.396;2023-09-30T02:27:08;27.20;50.80
14705;DHT22;7442;50.840;3.396;2023-09-30T02:29:55;27.20;50.80
14705;DHT22;7442;50.840;3.396;2023-09-30T02:32:41;27.20;50.70
14705;DHT22;7442;50.840;3.396;2023-09-30T02:35:28;27.30;50.50
14705;DHT22;7442;50.840;3.396;2023-09-30T02:38:14;27.20;50.60
14705;DHT22;7442;50.840;3.396;2023-09-30T02:41:02;27.30;50.70
14705;DHT22;7442;50.840;3.396;2023-09-30T02:43:48;27.20;50.60
14705;DHT22;7442;50.840;3.396;2023-09-30T02:46:35;27.30;50.50
14705;DHT22;7442;50.840;3.396;2023-09-30T02:49:21;27.30;50.50
14705;DHT22;7442;50.840;3.396;2023-09-30T02:52:08;27.30;50.50
14705;DHT22;7442;50.840;3.396;2023-09-30T02:54:55;27.30;50.30
14705;DHT22;7442;50.840;3.396;2023-09-30T02:57:42;27.40;50.30
14705;DHT22;7442;50.840;3.396;2023-09-30T03:00:27;27.20;50.40
14705;DHT22;7442;50.840;3.396;2023-09-30T03:03:15;27.10;50.80
14705;DHT22;7442;50.840;3.396;2023-09-30T03:06:02;27.00;51.00
14705;DHT22;7442;50.840;3.396;2023-09-30T03:08:48;26.90;51.20
14705;DHT22;7442;50.840;3.396;2023-09-30T03:11:34;26.80;51.40
14705;DHT22;7442;50.840;3.396;2023-09-30T03:14:21;26.80;51.60
14705;DHT22;7442;50.840;3.396;2023-09-30T03:17:08;26.70;51.60
14705;DHT22;7442;50.840;3.396;2023-09-30T03:19:56;26.70;51.70
14705;DHT22;7442;50.840;3.396;2023-09-30T03:22:42;26.70;51.70
14705;DHT22;7442;50.840;3.396;2023-09-30T03:25:29;26.70;51.60
14705;DHT22;7442;50.840;3.396;2023-09-30T03:28:15;26.80;51.50
14705;DHT22;7442;50.840;3.396;2023-09-30T03:31:01;26.80;51.30
14705;DHT22;7442;50.840;3.396;2023-09-30T03:33:50;26.90;51.20
14705;DHT22;7442;50.840;3.396;2023-09-30T03:36:38;26.90;51.00
14705;DHT22;7442;50.840;3.396;2023-09-30T03:39:26;27.00;50.90
14705;DHT22;7442;50.840;3.396;2023-09-30T03:42:12;27.00;50.80
14705;DHT22;7442;50.840;3.396;2023-09-30T03:44:59;27.00;50.70
14705;DHT22;7442;50.840;3.396;2023-09-30T03:47:45;27.10;50.70
14705;DHT22;7442;50.840;3.396;2023-09-30T03:50:33;27.10;50.60
14705;DHT22;7442;50.840;3.396;2023-09-30T03:53:20;27.00;50.60
14705;DHT22;7442;50.840;3.396;2023-09-30T03:56:08;27.00;50.70
14705;DHT22;7442;50.840;3.396;2023-09-30T03:58:56;27.00;50.60
14705;DHT22;7442;50.840;3.396;2023-09-30T04:01:42;27.00;50.50
14705;DHT22;7442;50.840;3.396;2023-09-30T04:04:29;27.10;50.60
14705;DHT22;7442;50.840;3.396;2023-09-30T04:07:16;27.10;50.40
14705;DHT22;7442;50.840;3.396;2023-09-30T04:10:02;27.10;50.30
14705;DHT22;7442;50.840;3.396;2023-09-30T04:12:49;27.20;50.20
14705;DHT22;7442;50.840;3.396;2023-09-30T04:15:37;27.00;50.40
14705;DHT22;7442;50.840;3.396;2023-09-30T04:18:24;26.90;50.70
14705;DHT22;7442;50.840;3.396;2023-09-30T04:21:12;26.80;51.00
14705;DHT22;7442;50.840;3.396;2023-09-30T04:23:59;26.70;51.20
14705;DHT22;7442;50.840;3.396;2023-09-30T04:26:45;26.60;51.30
14705;DHT22;7442;50.840;3.396;2023-09-30T04:29:31;26.60;51.40
14705;DHT22;7442;50.840;3.396;2023-09-30T04:32:17;26.50;51.40
14705;DHT22;7442;50.840;3.396;2023-09-30T04:35:05;26.60;51.50
14705;DHT22;7442;50.840;3.396;2023-09-30T04:37:53;26.50;51.50
14705;DHT22;7442;50.840;3.396;2023-09-30T04:40:39;26.50;51.50
14705;DHT22;7442;50.840;3.396;2023-09-30T04:43:26;26.50;51.50
14705;DHT22;7442;50.840;3.396;2023-09-30T04:46:13;26.50;51.50
14705;DHT22;7442;50.840;3.396;2023-09-30T04:49:00;26.50;51.50
14705;DHT22;7442;50.840;3.396;2023-09-30T04:51:48;26.50;51.50
14705;DHT22;7442;50.840;3.396;2023-09-30T04:54:34;26.40;51.50
14705;DHT22;7442;50.840;3.396;2023-09-30T04:57:21;26.40;51.70
14705;DHT22;7442;50.840;3.396;2023-09-30T05:00:08;26.40;51.80
14705;DHT22;7442;50.840;3.396;2023-09-30T05:02:56;26.30;51.80
14705;DHT22;7442;50.840;3.396;2023-09-30T05:05:44;26.30;51.70
14705;DHT22;7442;50.840;3.396;2023-09-30T05:08:30;26.40;51.70
14705;DHT22;7442;50.840;3.396;2023-09-30T05:11:16;26.30;51.70
14705;DHT22;7442;50.840;3.396;2023-09-30T05:14:04;26.30;51.80
14705;DHT22;7442;50.840;3.396;2023-09-30T05:16:50;26.30;51.70
14705;DHT22;7442;50.840;3.396;2023-09-30T05:19:36;26.30;51.70
14705;DHT22;7442;50.840;3.396;2023-09-30T05:22:23;26.30;51.70
14705;DHT22;7442;50.840;3.396;2023-09-30T05:25:09;26.30;51.70
14705;DHT22;7442;50.840;3.396;2023-09-30T05:27:56;26.30;51.70
14705;DHT22;7442;50.840;3.396;2023-09-30T05:30:42;26.30;51.50
14705;DHT22;7442;50.840;3.396;2023-09-30T05:33:28;26.30;51.60
14705;DHT22;7442;50.840;3.396;2023-09-30T05:36:15;26.30;51.60
14705;DHT22;7442;50.840;3.396;2023-09-30T05:39:02;26.30;51.70
14705;DHT22;7442;50.840;3.396;2023-09-30T05:41:49;26.30;51.70
14705;DHT22;7442;50.840;3.396;2023-09-30T05:44:35;26.30;51.60
14705;DHT22;7442;50.840;3.396;2023-09-30T05:47:22;26.30;51.70
14705;DHT22;7442;50.840;3.396;2023-09-30T05:50:08;26.30;51.70
14705;DHT22;7442;50.840;3.396;2023-09-30T05:52:56;26.20;51.60
14705;DHT22;7442;50.840;3.396;2023-09-30T05:55:42;26.30;51.60
14705;DHT22;7442;50.840;3.396;2023-09-30T05:58:30;26.30;51.50
14705;DHT22;7442;50.840;3.396;2023-09-30T06:01:16;26.30;51.50
14705;DHT22;7442;50.840;3.396;2023-09-30T06:04:04;26.30;51.50
14705;DHT22;7442;50.840;3.396;2023-09-30T06:06:50;26.30;52.20
14705;DHT22;7442;50.840;3.396;2023-09-30T06:09:37;26.30;51.50
14705;DHT22;7442;50.840;3.396;2023-09-30T06:12:23;26.30;51.40
14705;DHT22;7442;50.840;3.396;2023-09-30T06:15:10;26.40;51.20
14705;DHT22;7442;50.840;3.396;2023-09-30T06:17:58;26.40;51.20
14705;DHT22;7442;50.840;3.396;2023-09-30T06:20:45;26.50;51.10
14705;DHT22;7442;50.840;3.396;2023-09-30T06:23:31;26.40;51.00
14705;DHT22;7442;50.840;3.396;2023-09-30T06:26:18;26.50;51.00
14705;DHT22;7442;50.840;3.396;2023-09-30T06:29:06;26.50;51.00
14705;DHT22;7442;50.840;3.396;2023-09-30T06:31:52;26.50;50.90
14705;DHT22;7442;50.840;3.396;2023-09-30T06:34:39;26.50;50.90
14705;DHT22;7442;50.840;3.396;2023-09-30T06:37:26;26.40;50.90
14705;DHT22;7442;50.840;3.396;2023-09-30T06:40:14;26.40;51.00
14705;DHT22;7442;50.840;3.396;2023-09-30T06:43:00;26.40;51.10
14705;DHT22;7442;50.840;3.396;2023-09-30T06:45:46;26.40;51.00
14705;DHT22;7442;50.840;3.396;2023-09-30T06:48:34;26.40;51.00
14705;DHT22;7442;50.840;3.396;2023-09-30T06:51:20;26.30;51.10
14705;DHT22;7442;50.840;3.396;2023-09-30T06:54:06;26.30;51.00
14705;DHT22;7442;50.840;3.396;2023-09-30T06:56:53;26.30;51.10
14705;DHT22;7442;50.840;3.396;2023-09-30T06:59:39;26.30;51.30
14705;DHT22;7442;50.840;3.396;2023-09-30T07:02:25;26.40;51.50
14705;DHT22;7442;50.840;3.396;2023-09-30T07:05:13;26.40;51.30
14705;DHT22;7442;50.840;3.396;2023-09-30T07:08:00;26.40;51.30
14705;DHT22;7442;50.840;3.396;2023-09-30T07:10:46;26.50;51.20
14705;DHT22;7442;50.840;3.396;2023-09-30T07:13:34;26.50;51.10
14705;DHT22;7442;50.840;3.396;2023-09-30T07:16:21;26.50;51.00
14705;DHT22;7442;50.840;3.396;2023-09-30T07:19:07;26.50;50.70
14705;DHT22;7442;50.840;3.396;2023-09-30T07:21:53;26.50;50.70
14705;DHT22;7442;50.840;3.396;2023-09-30T07:24:40;26.50;50.70
14705;DHT22;7442;50.840;3.396;2023-09-30T07:27:27;26.50;50.50
14705;DHT22;7442;50.840;3.396;2023-09-30T07:30:14;26.50;50.40
14705;DHT22;7442;50.840;3.396;2023-09-30T07:33:00;26.50;50.40
14705;DHT22;7442;50.840;3.396;2023-09-30T07:35:47;26.50;50.30
14705;DHT22;7442;50.840;3.396;2023-09-30T07:38:34;26.50;50.20
14705;DHT22;7442;50.840;3.396;2023-09-30T07:41:20;26.80;49.80
14705;DHT22;7442;50.840;3.396;2023-09-30T07:44:06;26.90;49.50
14705;DHT22;7442;50.840;3.396;2023-09-30T07:46:54;26.80;49.50
14705;DHT22;7442;50.840;3.396;2023-09-30T07:49:40;26.70;49.70
14705;DHT22;7442;50.840;3.396;2023-09-30T07:52:27;26.60;49.70
14705;DHT22;7442;50.840;3.396;2023-09-30T07:55:13;26.60;49.80
14705;DHT22;7442;50.840;3.396;2023-09-30T07:57:59;26.60;49.80
14705;DHT22;7442;50.840;3.396;2023-09-30T08:00:46;26.60;49.90
14705;DHT22;7442;50.840;3.396;2023-09-30T08:03:33;26.50;49.90
14705;DHT22;7442;50.840;3.396;2023-09-30T08:06:20;26.60;49.80
14705;DHT22;7442;50.840;3.396;2023-09-30T08:09:06;26.60;49.70
14705;DHT22;7442;50.840;3.396;2023-09-30T08:11:57;26.60;49.50
14705;DHT22;7442;50.840;3.396;2023-09-30T08:14:44;26.70;49.50
14705;DHT22;7442;50.840;3.396;2023-09-30T08:17:30;26.70;49.30
14705;DHT22;7442;50.840;3.396;2023-09-30T08:20:17;26.70;49.20
14705;DHT22;7442;50.840;3.396;2023-09-30T08:23:04;26.80;49.30
14705;DHT22;7442;50.840;3.396;2023-09-30T08:25:50;26.80;49.20
14705;DHT22;7442;50.840;3.396;2023-09-30T08:28:36;26.80;49.10
14705;DHT22;7442;50.840;3.396;2023-09-30T08:31:23;26.70;49.20
14705;DHT22;7442;50.840;3.396;2023-09-30T08:34:10;26.70;49.20
14705;DHT22;7442;50.840;3.396;2023-09-30T08:36:57;26.70;49.20
14705;DHT22;7442;50.840;3.396;2023-09-30T08:39:44;26.70;49.20
14705;DHT22;7442;50.840;3.396;2023-09-30T08:42:32;26.70;49.20
14705;DHT22;7442;50.840;3.396;2023-09-30T08:45:20;26.80;49.10
14705;DHT22;7442;50.840;3.396;2023-09-30T08:48:06;26.80;49.50
14705;DHT22;7442;50.840;3.396;2023-09-30T08:50:53;26.80;49.10
14705;DHT22;7442;50.840;3.396;2023-09-30T08:53:41;26.80;49.10
14705;DHT22;7442;50.840;3.396;2023-09-30T08:56:30;26.80;49.10
14705;DHT22;7442;50.840;3.396;2023-09-30T08:59:18;26.80;49.10
14705;DHT22;7442;50.840;3.396;2023-09-30T09:02:11;26.90;49.10
14705;DHT22;7442;50.840;3.396;2023-09-30T09:04:58;26.80;49.00
14705;DHT22;7442;50.840;3.396;2023-09-30T09:07:45;26.90;49.10
14705;DHT22;7442;50.840;3.396;2023-09-30T09:10:33;26.90;49.00
14705;DHT22;7442;50.840;3.396;2023-09-30T09:13:19;26.90;49.00
14705;DHT22;7442;50.840;3.396;2023-09-30T09:16:09;26.90;48.90
14705;DHT22;7442;50.840;3.396;2023-09-30T09:18:55;26.90;48.90
14705;DHT22;7442;50.840;3.396;2023-09-30T09:21:57;26.90;48.90
14705;DHT22;7442;50.840;3.396;2023-09-30T09:24:44;26.90;48.90
14705;DHT22;7442;50.840;3.396;2023-09-30T09:27:36;26.90;48.90
14705;DHT22;7442;50.840;3.396;2023-09-30T09:30:26;27.00;48.90
14705;DHT22;7442;50.840;3.396;2023-09-30T09:33:14;27.00;49.00
14705;DHT22;7442;50.840;3.396;2023-09-30T09:36:00;27.00;49.00
14705;DHT22;7442;50.840;3.396;2023-09-30T09:38:50;27.00;48.80
14705;DHT22;7442;50.840;3.396;2023-09-30T09:41:50;27.10;48.70
14705;DHT22;7442;50.840;3.396;2023-09-30T09:44:37;27.10;48.70
14705;DHT22;7442;50.840;3.396;2023-09-30T09:47:24;27.20;48.70
14705;DHT22;7442;50.840;3.396;2023-09-30T09:50:11;27.20;48.60
14705;DHT22;7442;50.840;3.396;2023-09-30T09:52:59;27.30;48.50
14705;DHT22;7442;50.840;3.396;2023-09-30T09:55:46;27.30;48.60
14705;DHT22;7442;50.840;3.396;2023-09-30T09:58:34;27.30;48.50
14705;DHT22;7442;50.840;3.396;2023-09-30T10:01:21;27.40;48.40
14705;DHT22;7442;50.840;3.396;2023-09-30T10:04:10;27.50;48.40
14705;DHT22;7442;50.840;3.396;2023-09-30T10:06:56;27.50;48.30
14705;DHT22;7442;50.840;3.396;2023-09-30T10:09:46;27.50;48.30
14705;DHT22;7442;50.840;3.396;2023-09-30T10:12:39;27.50;48.30
14705;DHT22;7442;50.840;3.396;2023-09-30T10:18:16;27.60;48.30
14705;DHT22;7442;50.840;3.396;2023-09-30T10:21:07;27.60;48.30
14705;DHT22;7442;50.840;3.396;2023-09-30T10:24:27;27.60;48.30
14705;DHT22;7442;50.840;3.396;2023-09-30T10:26:44;27.60;48.90
14705;DHT22;7442;50.840;3.396;2023-09-30T10:29:42;27.60;48.30
14705;DHT22;7442;50.840;3.396;2023-09-30T10:35:46;27.70;48.40
14705;DHT22;7442;50.840;3.396;2023-09-30T10:38:37;27.70;48.40
14705;DHT22;7442;50.840;3.396;2023-09-30T10:44:34;27.70;48.40
14705;DHT22;7442;50.840;3.396;2023-09-30T10:47:56;27.70;48.50
14705;DHT22;7442;50.840;3.396;2023-09-30T10:53:32;27.80;48.80
14705;DHT22;7442;50.840;3.396;2023-09-30T10:56:19;27.80;48.60
14705;DHT22;7442;50.840;3.396;2023-09-30T10:59:05;27.90;48.50
14705;DHT22;7442;50.840;3.396;2023-09-30T11:01:52;27.90;48.80
14705;DHT22;7442;50.840;3.396;2023-09-30T11:04:48;27.90;48.60
14705;DHT22;7442;50.840;3.396;2023-09-30T11:07:34;27.90;48.40
14705;DHT22;7442;50.840;3.396;2023-09-30T11:10:23;27.90;48.50
14705;DHT22;7442;50.840;3.396;2023-09-30T11:13:09;28.00;48.80
14705;DHT22;7442;50.840;3.396;2023-09-30T11:16:03;28.10;48.30
14705;DHT22;7442;50.840;3.396;2023-09-30T11:18:54;28.20;48.20
14705;DHT22;7442;50.840;3.396;2023-09-30T11:21:41;28.20;48.50
14705;DHT22;7442;50.840;3.396;2023-09-30T11:24:34;28.20;48.60
14705;DHT22;7442;50.840;3.396;2023-09-30T11:27:25;28.10;48.40
14705;DHT22;7442;50.840;3.396;2023-09-30T11:30:13;28.10;48.40
14705;DHT22;7442;50.840;3.396;2023-09-30T11:33:00;28.10;48.30
14705;DHT22;7442;50.840;3.396;2023-09-30T11:36:00;28.10;48.60
14705;DHT22;7442;50.840;3.396;2023-09-30T11:38:47;28.00;47.40
14705;DHT22;7442;50.840;3.396;2023-09-30T11:41:39;28.00;47.70
14705;DHT22;7442;50.840;3.396;2023-09-30T11:44:26;28.00;47.70
14705;DHT22;7442;50.840;3.396;2023-09-30T11:47:14;28.00;47.40
14705;DHT22;7442;50.840;3.396;2023-09-30T11:50:01;28.10;47.40
14705;DHT22;7442;50.840;3.396;2023-09-30T11:52:48;28.10;47.40
14705;DHT22;7442;50.840;3.396;2023-09-30T11:55:35;28.10;47.20
14705;DHT22;7442;50.840;3.396;2023-09-30T11:58:22;28.10;47.50
14705;DHT22;7442;50.840;3.396;2023-09-30T12:01:08;28.10;47.40
14705;DHT22;7442;50.840;3.396;2023-09-30T12:03:56;28.10;46.70
14705;DHT22;7442;50.840;3.396;2023-09-30T12:06:43;28.10;46.30
14705;DHT22;7442;50.840;3.396;2023-09-30T12:09:29;28.10;46.40
14705;DHT22;7442;50.840;3.396;2023-09-30T12:12:16;28.10;46.20
14705;DHT22;7442;50.840;3.396;2023-09-30T12:15:04;28.00;45.90
14705;DHT22;7442;50.840;3.396;2023-09-30T12:17:50;28.10;45.80
14705;DHT22;7442;50.840;3.396;2023-09-30T12:20:36;28.00;46.00
14705;DHT22;7442;50.840;3.396;2023-09-30T12:23:23;28.10;46.30
14705;DHT22;7442;50.840;3.396;2023-09-30T12:26:10;28.10;46.30
14705;DHT22;7442;50.840;3.396;2023-09-30T12:28:57;28.10;46.20
14705;DHT22;7442;50.840;3.396;2023-09-30T12:31:44;28.10;45.80
14705;DHT22;7442;50.840;3.396;2023-09-30T12:34:31;28.00;45.70
14705;DHT22;7442;50.840;3.396;2023-09-30T12:37:18;28.10;46.50
14705;DHT22;7442;50.840;3.396;2023-09-30T12:40:06;28.10;46.90
14705;DHT22;7442;50.840;3.396;2023-09-30T12:42:53;28.20;46.00
14705;DHT22;7442;50.840;3.396;2023-09-30T12:45:39;28.40;45.40
14705;DHT22;7442;50.840;3.396;2023-09-30T12:48:26;28.50;44.90
14705;DHT22;7442;50.840;3.396;2023-09-30T12:51:14;28.60;45.10
14705;DHT22;7442;50.840;3.396;2023-09-30T12:54:01;28.40;45.00
14705;DHT22;7442;50.840;3.396;2023-09-30T12:56:48;28.40;45.50
14705;DHT22;7442;50.840;3.396;2023-09-30T12:59:35;28.30;45.70
14705;DHT22;7442;50.840;3.396;2023-09-30T13:02:22;28.30;45.80
14705;DHT22;7442;50.840;3.396;2023-09-30T13:05:09;28.10;45.30
14705;DHT22;7442;50.840;3.396;2023-09-30T13:07:56;28.10;45.70
14705;DHT22;7442;50.840;3.396;2023-09-30T13:10:42;28.10;46.10
14705;DHT22;7442;50.840;3.396;2023-09-30T13:13:32;28.10;46.30
14705;DHT22;7442;50.840;3.396;2023-09-30T13:16:18;28.00;46.20
14705;DHT22;7442;50.840;3.396;2023-09-30T13:19:05;28.00;46.00
14705;DHT22;7442;50.840;3.396;2023-09-30T13:21:52;28.00;45.50
14705;DHT22;7442;50.840;3.396;2023-09-30T13:24:40;28.00;45.20
14705;DHT22;7442;50.840;3.396;2023-09-30T13:27:27;28.00;45.00
14705;DHT22;7442;50.840;3.396;2023-09-30T13:30:14;28.00;45.30
14705;DHT22;7442;50.840;3.396;2023-09-30T13:33:00;28.00;45.40
14705;DHT22;7442;50.840;3.396;2023-09-30T13:35:47;28.00;45.20
14705;DHT22;7442;50.840;3.396;2023-09-30T13:38:33;28.00;44.80
14705;DHT22;7442;50.840;3.396;2023-09-30T13:41:19;28.00;44.20
14705;DHT22;7442;50.840;3.396;2023-09-30T13:44:05;28.00;44.40
14705;DHT22;7442;50.840;3.396;2023-09-30T13:46:51;28.00;45.30
14705;DHT22;7442;50.840;3.396;2023-09-30T13:49:38;28.10;45.40
14705;DHT22;7442;50.840;3.396;2023-09-30T13:52:25;28.10;45.40
14705;DHT22;7442;50.840;3.396;2023-09-30T13:55:11;28.20;45.60
14705;DHT22;7442;50.840;3.396;2023-09-30T13:57:59;28.20;45.50
14705;DHT22;7442;50.840;3.396;2023-09-30T14:00:46;28.20;45.10
14705;DHT22;7442;50.840;3.396;2023-09-30T14:03:33;28.20;44.80
14705;DHT22;7442;50.840;3.396;2023-09-30T14:06:19;28.20;44.70
14705;DHT22;7442;50.840;3.396;2023-09-30T14:09:06;28.10;45.20
14705;DHT22;7442;50.840;3.396;2023-09-30T14:11:54;28.20;45.70
14705;DHT22;7442;50.840;3.396;2023-09-30T14:14:41;28.20;45.60
14705;DHT22;7442;50.840;3.396;2023-09-30T14:17:28;28.20;45.70
14705;DHT22;7442;50.840;3.396;2023-09-30T14:20:14;28.20;45.20
14705;DHT22;7442;50.840;3.396;2023-09-30T14:23:01;28.20;45.60
14705;DHT22;7442;50.840;3.396;2023-09-30T14:25:47;28.30;45.90
14705;DHT22;7442;50.840;3.396;2023-09-30T14:28:33;28.30;46.10
14705;DHT22;7442;50.840;3.396;2023-09-30T14:31:20;28.30;46.00
14705;DHT22;7442;50.840;3.396;2023-09-30T14:34:06;28.40;46.30
14705;DHT22;7442;50.840;3.396;2023-09-30T14:36:52;28.40;46.00
14705;DHT22;7442;50.840;3.396;2023-09-30T14:39:39;28.50;46.10
14705;DHT22;7442;50.840;3.396;2023-09-30T14:42:26;28.50;46.20
14705;DHT22;7442;50.840;3.396;2023-09-30T14:45:12;28.40;46.20
14705;DHT22;7442;50.840;3.396;2023-09-30T14:47:58;28.40;46.30
14705;DHT22;7442;50.840;3.396;2023-09-30T14:50:49;28.40;46.40
14705;DHT22;7442;50.840;3.396;2023-09-30T14:53:35;28.40;46.50
14705;DHT22;7442;50.840;3.396;2023-09-30T14:56:22;28.40;46.70
14705;DHT22;7442;50.840;3.396;2023-09-30T14:59:08;28.40;46.70
14705;DHT22;7442;50.840;3.396;2023-09-30T15:01:54;28.40;46.70
14705;DHT22;7442;50.840;3.396;2023-09-30T15:04:41;28.50;46.70
14705;DHT22;7442;50.840;3.396;2023-09-30T15:07:27;28.50;46.60
14705;DHT22;7442;50.840;3.396;2023-09-30T15:10:13;28.50;46.50
14705;DHT22;7442;50.840;3.396;2023-09-30T15:13:00;28.60;46.60
14705;DHT22;7442;50.840;3.396;2023-09-30T15:15:46;28.60;46.60
14705;DHT22;7442;50.840;3.396;2023-09-30T15:18:32;28.60;46.60
14705;DHT22;7442;50.840;3.396;2023-09-30T15:21:18;28.60;46.60
14705;DHT22;7442;50.840;3.396;2023-09-30T15:24:05;28.60;46.70
14705;DHT22;7442;50.840;3.396;2023-09-30T15:26:51;28.50;46.80
14705;DHT22;7442;50.840;3.396;2023-09-30T15:29:38;28.50;46.90
14705;DHT22;7442;50.840;3.396;2023-09-30T15:32:25;28.50;47.00
14705;DHT22;7442;50.840;3.396;2023-09-30T15:35:11;28.50;47.10
14705;DHT22;7442;50.840;3.396;2023-09-30T15:37:57;28.50;47.10
14705;DHT22;7442;50.840;3.396;2023-09-30T15:40:55;28.40;47.10
14705;DHT22;7442;50.840;3.396;2023-09-30T15:43:46;28.30;46.10
14705;DHT22;7442;50.840;3.396;2023-09-30T15:46:33;28.30;45.40
14705;DHT22;7442;50.840;3.396;2023-09-30T15:49:19;28.30;44.90
14705;DHT22;7442;50.840;3.396;2023-09-30T15:52:06;28.30;44.50
14705;DHT22;7442;50.840;3.396;2023-09-30T15:54:53;28.20;44.30
14705;DHT22;7442;50.840;3.396;2023-09-30T15:57:40;28.20;45.00
14705;DHT22;7442;50.840;3.396;2023-09-30T16:00:28;28.20;44.90
14705;DHT22;7442;50.840;3.396;2023-09-30T16:03:14;28.10;44.40
14705;DHT22;7442;50.840;3.396;2023-09-30T16:06:04;28.10;44.60
14705;DHT22;7442;50.840;3.396;2023-09-30T16:08:50;28.00;44.80
14705;DHT22;7442;50.840;3.396;2023-09-30T16:11:36;28.00;44.70
14705;DHT22;7442;50.840;3.396;2023-09-30T16:14:23;28.00;44.70
14705;DHT22;7442;50.840;3.396;2023-09-30T16:17:09;28.00;44.70
14705;DHT22;7442;50.840;3.396;2023-09-30T16:19:56;27.90;44.40
14705;DHT22;7442;50.840;3.396;2023-09-30T16:22:44;27.90;44.40
14705;DHT22;7442;50.840;3.396;2023-09-30T16:25:30;27.90;44.50
14705;DHT22;7442;50.840;3.396;2023-09-30T16:28:17;27.90;44.80
14705;DHT22;7442;50.840;3.396;2023-09-30T16:31:03;27.80;44.60
14705;DHT22;7442;50.840;3.396;2023-09-30T16:33:50;27.80;44.90
14705;DHT22;7442;50.840;3.396;2023-09-30T16:36:36;27.80;44.70
14705;DHT22;7442;50.840;3.396;2023-09-30T16:39:23;27.80;44.50
14705;DHT22;7442;50.840;3.396;2023-09-30T16:42:09;27.70;44.70
14705;DHT22;7442;50.840;3.396;2023-09-30T16:45:01;27.70;44.90
14705;DHT22;7442;50.840;3.396;2023-09-30T16:47:44;27.80;45.00
14705;DHT22;7442;50.840;3.396;2023-09-30T16:50:30;28.00;44.50
14705;DHT22;7442;50.840;3.396;2023-09-30T16:53:16;28.00;44.20
14705;DHT22;7442;50.840;3.396;2023-09-30T16:56:03;27.90;44.30
14705;DHT22;7442;50.840;3.396;2023-09-30T16:58:49;27.90;44.50
14705;DHT22;7442;50.840;3.396;2023-09-30T17:01:36;27.90;44.70
14705;DHT22;7442;50.840;3.396;2023-09-30T17:04:26;27.80;44.70
14705;DHT22;7442;50.840;3.396;2023-09-30T17:07:12;27.70;44.90
14705;DHT22;7442;50.840;3.396;2023-09-30T17:09:58;27.60;45.10
14705;DHT22;7442;50.840;3.396;2023-09-30T17:12:45;27.60;45.20
14705;DHT22;7442;50.840;3.396;2023-09-30T17:15:31;27.50;45.50
14705;DHT22;7442;50.840;3.396;2023-09-30T17:18:18;27.60;45.50
14705;DHT22;7442;50.840;3.396;2023-09-30T17:21:05;28.10;44.80
14705;DHT22;7442;50.840;3.396;2023-09-30T17:23:51;28.30;44.50
14705;DHT22;7442;50.840;3.396;2023-09-30T17:26:37;28.40;44.40
14705;DHT22;7442;50.840;3.396;2023-09-30T17:29:24;28.40;44.30
14705;DHT22;7442;50.840;3.396;2023-09-30T17:32:10;28.40;44.40
14705;DHT22;7442;50.840;3.396;2023-09-30T17:34:58;28.40;44.10
14705;DHT22;7442;50.840;3.396;2023-09-30T17:37:44;28.50;43.80
14705;DHT22;7442;50.840;3.396;2023-09-30T17:40:32;28.40;43.90
14705;DHT22;7442;50.840;3.396;2023-09-30T17:43:19;28.40;44.10
14705;DHT22;7442;50.840;3.396;2023-09-30T17:46:15;28.40;44.30
14705;DHT22;7442;50.840;3.396;2023-09-30T17:49:04;28.30;44.50
14705;DHT22;7442;50.840;3.396;2023-09-30T17:51:50;27.90;44.90
14705;DHT22;7442;50.840;3.396;2023-09-30T17:54:37;27.70;45.30
14705;DHT22;7442;50.840;3.396;2023-09-30T17:57:23;27.40;45.90
14705;DHT22;7442;50.840;3.396;2023-09-30T18:00:09;27.30;46.30
14705;DHT22;7442;50.840;3.396;2023-09-30T18:02:57;27.10;46.60
14705;DHT22;7442;50.840;3.396;2023-09-30T18:05:43;27.10;46.90